createdAt,value
2018-07-09T00:01:35.935Z,57.88
2018-07-09T00:04:05.060Z,58.45
2018-07-09T00:06:34.136Z,58.33
2018-07-09T00:09:03.288Z,58.69
2018-07-09T00:11:32.369Z,57.99
2018-07-09T00:14:01.479Z,58.19
2018-07-09T00:16:30.597Z,58.59
2018-07-09T00:18:59.692Z,58.74
2018-07-09T00:21:28.777Z,59.14
2018-07-09T00:23:57.880Z,59.18
2018-07-09T00:26:26.956Z,58.81
2018-07-09T00:28:56.052Z,58.58
2018-07-09T00:31:25.121Z,58.70
2018-07-09T00:33:54.220Z,58.98
2018-07-09T00:36:23.301Z,59.87
2018-07-09T00:38:52.396Z,60.29
2018-07-09T00:41:23.408Z,61.14
2018-07-09T00:43:52.790Z,61.33
2018-07-09T00:46:21.845Z,61.43
2018-07-09T00:48:50.935Z,60.91
2018-07-09T00:51:20.035Z,61.44
2018-07-09T00:53:49.160Z,61.57
2018-07-09T00:56:18.233Z,61.87
2018-07-09T00:58:47.336Z,61.85
2018-07-09T01:01:16.409Z,61.57
2018-07-09T01:03:45.483Z,62.40
2018-07-09T01:06:14.577Z,62.08
2018-07-09T01:08:43.698Z,62.20
2018-07-09T01:11:24.166Z,62.04
2018-07-09T01:13:53.256Z,62.28
2018-07-09T01:16:22.351Z,62.71
2018-07-09T01:18:51.468Z,62.31
2018-07-09T01:21:20.538Z,62.58
2018-07-09T01:23:49.607Z,61.96
2018-07-09T01:26:18.706Z,62.44
2018-07-09T01:28:47.783Z,62.15
2018-07-09T01:31:16.884Z,62.44
2018-07-09T01:33:45.956Z,62.14
2018-07-09T01:36:15.048Z,62.26
2018-07-09T01:38:44.124Z,62.23
2018-07-09T01:41:13.212Z,62.70
2018-07-09T01:43:42.275Z,62.65
2018-07-09T01:46:11.376Z,63.02
2018-07-09T01:48:40.445Z,62.92
2018-07-09T01:51:09.536Z,62.81
2018-07-09T01:53:38.627Z,63.15
2018-07-09T01:56:07.712Z,62.71
2018-07-09T01:58:36.772Z,62.25
2018-07-09T02:01:05.859Z,62.23
2018-07-09T02:03:34.928Z,61.95
2018-07-09T02:06:04.013Z,62.45
2018-07-09T02:08:33.079Z,62.07
2018-07-09T02:11:02.184Z,62.72
2018-07-09T02:13:31.248Z,62.05
2018-07-09T02:16:00.360Z,62.10
2018-07-09T02:18:29.432Z,62.83
2018-07-09T02:20:58.520Z,63.23
2018-07-09T02:23:27.580Z,63.56
2018-07-09T02:25:56.667Z,63.86
2018-07-09T02:28:25.782Z,64.17
2018-07-09T02:30:54.862Z,63.96
2018-07-09T02:33:23.924Z,64.08
2018-07-09T02:35:53.028Z,64.60
2018-07-09T02:38:22.099Z,64.37
2018-07-09T02:40:51.172Z,64.41
2018-07-09T02:43:20.267Z,64.49
2018-07-09T02:45:49.335Z,64.04
2018-07-09T02:48:18.445Z,63.84
2018-07-09T02:50:47.507Z,63.81
2018-07-09T02:53:16.616Z,64.04
2018-07-09T02:55:45.688Z,63.99
2018-07-09T02:58:14.780Z,64.83
2018-07-09T03:00:43.898Z,64.79
2018-07-09T03:03:12.965Z,65.48
2018-07-09T03:05:42.040Z,65.99
2018-07-09T03:08:11.129Z,66.92
2018-07-09T03:10:40.229Z,66.12
2018-07-09T03:13:09.341Z,66.98
2018-07-09T03:15:38.444Z,66.67
2018-07-09T03:18:07.589Z,66.47
2018-07-09T03:20:36.677Z,66.79
2018-07-09T03:23:05.840Z,67.00
2018-07-09T03:25:35.005Z,67.12
2018-07-09T03:28:04.067Z,67.01
2018-07-09T03:30:33.173Z,66.58
2018-07-09T03:33:02.276Z,66.59
2018-07-09T03:35:31.487Z,67.16
2018-07-09T03:38:00.569Z,67.82
2018-07-09T03:40:29.656Z,67.81
2018-07-09T03:42:58.783Z,67.03
2018-07-09T03:45:27.875Z,66.92
2018-07-09T03:47:56.993Z,66.41
2018-07-09T03:50:26.089Z,66.25
2018-07-09T03:52:55.220Z,67.49
2018-07-09T03:55:24.313Z,66.42
2018-07-09T03:57:53.401Z,66.98
2018-07-09T04:00:22.529Z,67.28
2018-07-09T04:02:51.620Z,67.30
2018-07-09T04:05:20.732Z,67.02
2018-07-09T04:07:49.824Z,67.05
2018-07-09T04:10:18.952Z,66.82
2018-07-09T04:12:48.051Z,66.67
2018-07-09T04:15:17.170Z,67.01
2018-07-09T04:17:46.264Z,66.83
2018-07-09T04:20:15.368Z,66.68
2018-07-09T04:22:44.462Z,66.42
2018-07-09T04:25:13.586Z,66.59
2018-07-09T04:27:42.681Z,67.08
2018-07-09T04:30:12.067Z,66.77
2018-07-09T04:32:41.458Z,66.29
2018-07-09T04:35:10.591Z,66.04
2018-07-09T04:37:39.973Z,66.51
2018-07-09T04:40:09.021Z,66.36
2018-07-09T04:42:38.101Z,66.62
2018-07-09T04:45:07.213Z,66.70
2018-07-09T04:47:36.289Z,66.81
2018-07-09T04:50:06.172Z,66.00
2018-07-09T04:52:35.261Z,65.55
2018-07-09T04:55:04.376Z,65.88
2018-07-09T04:57:33.462Z,65.75
2018-07-09T05:00:02.556Z,66.07
2018-07-09T05:02:31.636Z,65.18
2018-07-09T05:05:00.804Z,65.01
2018-07-09T05:07:29.828Z,64.72
2018-07-09T05:09:58.953Z,64.13
2018-07-09T05:12:28.024Z,64.49
2018-07-09T05:14:57.391Z,64.57
2018-07-09T05:17:26.561Z,64.00
2018-07-09T05:19:55.652Z,64.96
2018-07-09T05:22:24.736Z,64.81
2018-07-09T05:24:53.849Z,64.93
2018-07-09T05:27:22.919Z,64.50
2018-07-09T05:29:51.993Z,65.02
2018-07-09T05:32:21.112Z,64.02
2018-07-09T05:34:50.220Z,64.75
2018-07-09T05:37:19.328Z,63.58
2018-07-09T05:39:48.408Z,63.90
2018-07-09T05:42:17.512Z,63.37
2018-07-09T05:44:47.233Z,62.94
2018-07-09T05:47:16.340Z,63.40
2018-07-09T05:49:45.420Z,62.79
2018-07-09T05:52:14.523Z,62.90
2018-07-09T05:54:43.636Z,62.81
2018-07-09T05:57:12.746Z,63.27
2018-07-09T05:59:41.908Z,62.24
2018-07-09T06:02:11.024Z,62.27
2018-07-09T06:04:40.108Z,62.34
2018-07-09T06:07:09.220Z,62.40
2018-07-09T06:09:38.309Z,62.08
2018-07-09T06:12:07.596Z,62.82
2018-07-09T06:14:36.700Z,61.17
2018-07-09T06:17:06.081Z,61.27
2018-07-09T06:19:35.532Z,61.63
2018-07-09T06:22:04.556Z,62.22
2018-07-09T06:24:33.652Z,61.79
2018-07-09T06:27:02.748Z,61.09
2018-07-09T06:29:31.841Z,61.55
2018-07-09T06:32:00.948Z,61.94
2018-07-09T06:34:30.033Z,62.17
2018-07-09T06:36:59.150Z,61.32
2018-07-09T06:39:28.227Z,60.79
2018-07-09T06:41:57.328Z,60.63
2018-07-09T06:44:26.417Z,60.57
2018-07-09T06:46:55.529Z,60.26
2018-07-09T06:49:24.620Z,59.44
2018-07-09T06:51:54.179Z,60.29
2018-07-09T06:54:23.276Z,61.20
2018-07-09T06:56:52.385Z,61.33
2018-07-09T06:59:21.467Z,62.27
2018-07-09T07:01:50.564Z,62.24
2018-07-09T07:04:19.632Z,60.21
2018-07-09T07:06:48.748Z,60.76
2018-07-09T07:09:17.825Z,59.19
2018-07-09T07:11:46.917Z,58.18
2018-07-09T07:14:16.035Z,59.53
2018-07-09T07:16:45.091Z,59.79
2018-07-09T07:19:14.204Z,58.63
2018-07-09T07:21:43.280Z,57.27
2018-07-09T07:24:12.383Z,56.92
2018-07-09T07:26:41.452Z,57.62
2018-07-09T07:29:10.557Z,56.90
2018-07-09T07:31:39.664Z,57.12
2018-07-09T07:34:08.752Z,57.20
2018-07-09T07:36:37.832Z,56.33
2018-07-09T07:39:06.928Z,57.45
2018-07-09T07:41:35.998Z,56.28
2018-07-09T07:44:05.099Z,55.57
2018-07-09T07:46:34.177Z,55.18
2018-07-09T07:49:03.268Z,55.16
2018-07-09T07:51:32.367Z,55.37
2018-07-09T07:54:01.485Z,54.47
2018-07-09T07:56:30.552Z,54.68
2018-07-09T07:58:59.648Z,54.40
2018-07-09T08:01:28.736Z,53.82
2018-07-09T08:03:57.912Z,55.42
2018-07-09T08:06:27.133Z,55.99
2018-07-09T08:08:56.246Z,55.70
2018-07-09T08:11:47.729Z,55.56
2018-07-09T08:13:54.453Z,55.61
2018-07-09T08:16:23.516Z,55.79
2018-07-09T08:18:52.622Z,54.69
2018-07-09T08:21:21.877Z,55.83
2018-07-09T08:23:51.316Z,55.72
2018-07-09T08:26:20.432Z,55.50
2018-07-09T08:28:49.542Z,55.52
2018-07-09T08:31:18.644Z,55.53
2018-07-09T08:33:47.804Z,55.21
2018-07-09T08:36:16.924Z,55.07
2018-07-09T08:38:46.021Z,55.30
2018-07-09T08:41:15.093Z,55.10
2018-07-09T08:43:44.188Z,54.29
2018-07-09T08:46:13.264Z,55.11
2018-07-09T08:48:42.351Z,55.20
2018-07-09T08:51:11.428Z,55.58
2018-07-09T08:53:40.543Z,56.07
2018-07-09T08:56:09.626Z,56.40
2018-07-09T08:58:38.716Z,57.02
2018-07-09T09:01:08.097Z,57.60
2018-07-09T09:03:37.131Z,57.09
2018-07-09T09:06:06.224Z,57.54
2018-07-09T09:08:35.296Z,56.50
2018-07-09T09:11:04.392Z,56.76
2018-07-09T09:13:33.461Z,56.39
2018-07-09T09:16:02.581Z,56.08
2018-07-09T09:18:31.660Z,56.37
2018-07-09T09:21:00.768Z,55.61
2018-07-09T09:23:29.856Z,56.20
2018-07-09T09:25:58.987Z,55.80
2018-07-09T09:28:28.060Z,56.20
2018-07-09T09:30:57.164Z,56.75
2018-07-09T09:33:26.248Z,57.23
2018-07-09T09:35:55.332Z,57.36
2018-07-09T09:38:24.424Z,57.88
2018-07-09T09:40:53.520Z,57.86
2018-07-09T09:43:22.592Z,58.26
2018-07-09T09:45:51.690Z,58.35
2018-07-09T09:48:20.817Z,58.06
2018-07-09T09:50:49.903Z,57.66
2018-07-09T09:53:19.001Z,58.39
2018-07-09T09:55:48.095Z,58.29
2018-07-09T09:58:17.213Z,59.20
2018-07-09T10:00:51.316Z,59.82
2018-07-09T10:03:20.443Z,59.15
2018-07-09T10:05:49.819Z,58.87
2018-07-09T10:08:18.912Z,60.06
2018-07-09T10:10:48.029Z,58.95
2018-07-09T10:13:17.124Z,59.00
2018-07-09T10:15:46.212Z,59.74
2018-07-09T10:18:15.321Z,59.96
2018-07-09T10:20:44.417Z,60.27
2018-07-09T10:23:13.613Z,61.06
2018-07-09T10:25:42.673Z,60.86
2018-07-09T10:28:11.760Z,61.10
2018-07-09T10:30:41.120Z,60.96
2018-07-09T10:33:10.204Z,59.90
2018-07-09T10:35:39.312Z,58.58
2018-07-09T10:38:08.392Z,56.96
2018-07-09T10:40:37.508Z,56.13
2018-07-09T10:43:06.583Z,55.55
2018-07-09T10:45:35.651Z,55.25
2018-07-09T10:48:04.770Z,54.86
2018-07-09T10:50:33.865Z,55.11
2018-07-09T10:53:02.977Z,56.11
2018-07-09T10:55:32.156Z,55.84
2018-07-09T10:58:01.288Z,56.43
2018-07-09T11:00:30.685Z,56.59
2018-07-09T11:02:59.809Z,56.97
2018-07-09T11:05:28.896Z,57.56
2018-07-09T11:07:57.992Z,57.44
2018-07-09T11:10:27.755Z,56.49
2018-07-09T11:12:56.888Z,55.48
2018-07-09T11:15:25.952Z,54.97
2018-07-09T11:17:55.048Z,54.67
2018-07-09T11:20:24.292Z,54.47
2018-07-09T11:22:53.389Z,54.76
2018-07-09T11:25:22.601Z,54.16
2018-07-09T11:27:51.680Z,54.54
2018-07-09T11:30:20.776Z,53.24
2018-07-09T11:32:49.868Z,53.82
